»·PEaware :: N72675 KSNA-KAVX

N72675 :: KSNA-KAVX

FLIGHT INFORMATION

Flight Status: Arrived
Operator: Privately registered:
United States
More flights under this callsign
Pilot: Shawn M. (27480)
Aircraft: CESSNA 172 SKYHAWK
(C172)
More flights by this aircraft type
Origin: KSNA John Wayne-Orange Co
United States
Destination: KAVX Catalina
United States
More flights between these airports :: More routes between these airports
Route: SLI V21 SXC
File this flight plan on PilotEdge
Remarks: I-7 Rating
Altitude:
(Current/Filed)
4,000ft
Speed:
(Current/Filed)
115kts
Departed: 12-Jan-20 01:08 PM
Arrived: 12-Jan-20 01:41 PM
Distance/Time
Traveled:
32nm/0:33
Distance/Time
To Go:
Arrived

Flight Plot

Page will automatically refresh every two minutes.


Map Options




Map Legend


Flown Route
Filed Route
Departure Airport
Arrival Airport
Navaid (VOR, NDB)
Fix

Horizontal Profiles

Position Reports

Time Latitude Longitude Heading Altitude Ground
Speed
12-Jan-20 12:52 33.676080 -117.870909 219 60ft 0kts
12-Jan-20 12:53 33.676080 -117.870909 219 60ft 0kts
12-Jan-20 12:54 33.676080 -117.870909 219 60ft 0kts
12-Jan-20 12:55 33.676080 -117.870909 219 60ft 0kts
12-Jan-20 12:56 33.676080 -117.870909 219 60ft 0kts
12-Jan-20 12:57 33.676080 -117.870909 219 60ft 0kts
12-Jan-20 12:58 33.676080 -117.870909 219 60ft 0kts
12-Jan-20 12:59 33.676080 -117.870909 219 60ft 0kts
12-Jan-20 13:00 33.676080 -117.870909 219 60ft 0kts
12-Jan-20 13:01 33.675979 -117.870119 23 60ft 9kts
12-Jan-20 13:02 33.680354 -117.867545 27 60ft 20kts
12-Jan-20 13:03 33.681190 -117.866479 109 60ft 0kts
12-Jan-20 13:04 33.681190 -117.866479 109 60ft 0kts
12-Jan-20 13:05 33.681190 -117.866479 109 60ft 0kts
12-Jan-20 13:06 33.679867 -117.866207 209 60ft 26kts
12-Jan-20 13:07 33.660810 -117.877666 210 797ft 81kts
12-Jan-20 13:08 33.647029 -117.898249 241 1793ft 83kts
12-Jan-20 13:09 33.635745 -117.922697 240 2792ft 84kts
12-Jan-20 13:10 33.624151 -117.946290 239 3787ft 80kts
12-Jan-20 13:11 33.609667 -117.974063 239 3992ft 111kts
12-Jan-20 13:12 33.592743 -118.006415 239 3990ft 115kts
12-Jan-20 13:13 33.575583 -118.039225 241 3990ft 116kts
12-Jan-20 13:14 33.558365 -118.072181 239 3990ft 116kts
12-Jan-20 13:15 33.541149 -118.104857 240 3990ft 115kts
12-Jan-20 13:16 33.524116 -118.137281 239 3990ft 114kts
12-Jan-20 13:17 33.507154 -118.169554 240 3990ft 114kts
12-Jan-20 13:18 33.490134 -118.201910 240 3990ft 114kts
12-Jan-20 13:19 33.473108 -118.234245 240 3990ft 114kts
12-Jan-20 13:20 33.456057 -118.266603 240 3990ft 114kts
12-Jan-20 13:21 33.439014 -118.298901 240 3990ft 114kts
12-Jan-20 13:22 33.421905 -118.331305 241 3990ft 114kts
12-Jan-20 13:23 33.405210 -118.362907 241 3990ft 109kts
12-Jan-20 13:24 33.389037 -118.393488 241 3988ft 104kts
12-Jan-20 13:25 33.389253 -118.417156 339 3987ft 77kts
12-Jan-20 13:26 33.411839 -118.414683 4 3991ft 87kts
12-Jan-20 13:27 33.436855 -118.411591 1 3990ft 92kts
12-Jan-20 13:28 33.462490 -118.407876 4 3991ft 93kts
12-Jan-20 13:30 33.488248 -118.403826 4 3990ft 93kts
12-Jan-20 13:31 33.514155 -118.399917 4 3990ft 94kts
12-Jan-20 13:32 33.535818 -118.413054 318 3990ft 91kts
12-Jan-20 13:33 33.555035 -118.433284 318 3990ft 92kts
12-Jan-20 13:34 33.575955 -118.437898 61 3988ft 99kts
12-Jan-20 13:35 33.561836 -118.411142 138 3990ft 103kts
12-Jan-20 13:36 33.535990 -118.396672 163 3886ft 109kts
12-Jan-20 13:37 33.505609 -118.399605 191 3491ft 106kts
12-Jan-20 13:38 33.476428 -118.404411 189 2887ft 108kts
12-Jan-20 13:39 33.448232 -118.408879 189 2502ft 93kts
12-Jan-20 13:40 33.421390 -118.410924 165 2297ft 101kts
12-Jan-20 13:41 33.404905 -118.416005 233 1549ft 32kts
12-Jan-20 13:42 33.404025 -118.415039 178 1545ft 8kts

Navigation Log

Ident Type
Flight plan parsing failed, navigation log unavailable